Time;durP1;ratioP1;P1;durP2;ratioP2;P2;SDS_P1;SDS_P2;PMS_P1;PMS_P2;Temp;Humidity;BMP_temperature;BMP_pressure;BME280_temperature;BME280_humidity;BME280_pressure;Samples;Min_cycle;Max_cycle;Signal;HPM_P1;HPM_P2
2021/05/12 00:00:33;;;;;;;;;;;;;;;13.25;100.00;99442.73;1796976;78;20177;-74
2021/05/12 00:03:00;;;;;;;;;;;;;;;13.20;100.00;99444.07;1800099;78;20169;-72
2021/05/12 00:05:26;;;;;;;;;;;;;;;13.17;100.00;99443.83;1800108;78;20543;-73
2021/05/12 00:07:52;;;;;;;;;;;;;;;13.13;100.00;99453.52;1795367;78;21159;-72
2021/05/12 00:10:20;;;;;;;;;;;;;;;13.07;100.00;99454.09;1795535;78;20228;-73
2021/05/12 00:12:47;;;;;;;;;;;;;;;13.00;100.00;99454.36;1800150;79;20540;-72
2021/05/12 00:15:15;;;;;;;;;;;;;;;12.97;100.00;99450.06;1800104;79;20177;-73
2021/05/12 00:17:43;;;;;;;;;;;;;;;12.90;100.00;99449.53;1800182;79;20142;-73
2021/05/12 00:20:11;;;;;;;;;;;;;;;12.81;100.00;99450.61;1800029;78;21147;-71
2021/05/12 00:23:03;;;;;;;;;;;;;;;12.72;100.00;99457.09;1800156;79;20141;-72
2021/05/12 00:25:24;;;;;;;;;;;;;;;12.62;100.00;99451.17;1796535;78;20455;-72
2021/05/12 00:27:50;;;;;;;;;;;;;;;12.55;100.00;99451.98;1802990;79;20137;-73
2021/05/12 00:30:18;;;;;;;;;;;;;;;12.50;100.00;99443.91;1797071;78;20194;-73
2021/05/12 00:32:45;;;;;;;;;;;;;;;12.45;100.00;99450.63;1799109;78;21081;-71
2021/05/12 00:35:12;;;;;;;;;;;;;;;12.42;100.00;99447.94;1799358;78;20153;-71
2021/05/12 00:37:39;;;;;;;;;;;;;;;12.45;100.00;99439.86;1794515;78;20153;-71
2021/05/12 00:40:06;;;;;;;;;;;;;;;12.45;100.00;99429.09;1802428;79;20225;-73
2021/05/12 00:42:33;;;;;;;;;;;;;;;12.44;100.00;99438.23;1795270;77;20165;-72
2021/05/12 00:44:59;;;;;;;;;;;;;;;12.46;100.00;99429.35;1803567;78;20972;-73
2021/05/12 00:47:27;;;;;;;;;;;;;;;12.48;100.00;99430.44;1802894;78;20141;-72
2021/05/12 00:49:53;;;;;;;;;;;;;;;12.48;100.00;99425.86;1802136;78;20121;-71
2021/05/12 00:52:20;;;;;;;;;;;;;;;12.49;100.00;99428.81;1814084;79;20200;-72
2021/05/12 00:54:46;;;;;;;;;;;;;;;12.55;100.00;99426.95;1802430;78;20152;-72
2021/05/12 00:57:13;;;;;;;;;;;;;;;12.58;100.00;99437.97;1798309;78;21025;-70
2021/05/12 00:59:39;;;;;;;;;;;;;;;12.67;100.00;99430.72;1806042;78;20177;-71
2021/05/12 01:02:06;;;;;;;;;;;;;;;12.71;100.00;99422.34;1797739;78;20571;-71
2021/05/12 01:04:33;;;;;;;;;;;;;;;12.70;100.00;99435.55;1805762;78;20125;-71
2021/05/12 01:07:00;;;;;;;;;;;;;;;12.60;100.00;99429.09;1813196;79;20169;-71
2021/05/12 01:09:26;;;;;;;;;;;;;;;12.58;100.00;99435.81;1800231;78;21813;-72
2021/05/12 01:11:53;;;;;;;;;;;;;;;12.65;100.00;99431.77;1806010;79;20157;-71
2021/05/12 01:14:19;;;;;;;;;;;;;;;12.68;100.00;99428.28;1806101;79;20248;-71
2021/05/12 01:16:47;;;;;;;;;;;;;;;12.72;100.00;99433.40;1773445;79;20220;-75
2021/05/12 01:19:14;;;;;;;;;;;;;;;12.73;100.00;99448.47;1805977;78;20551;-70
2021/05/12 01:21:41;;;;;;;;;;;;;;;12.75;100.00;99443.08;1799231;78;21084;-72
2021/05/12 01:24:08;;;;;;;;;;;;;;;12.75;100.00;99447.12;1812110;79;20165;-75
2021/05/12 01:26:35;;;;;;;;;;;;;;;12.83;100.00;99455.19;1767700;78;20579;-73
2021/05/12 01:29:01;;;;;;;;;;;;;;;12.86;100.00;99457.33;1797565;78;20184;-73
2021/05/12 01:31:33;;;;;;;;;;;;;;;12.83;100.00;99447.11;1806177;79;20511;-73
2021/05/12 01:34:00;;;;;;;;;;;;;;;12.83;100.00;99451.15;1799911;78;21153;-73
2021/05/12 01:36:26;;;;;;;;;;;;;;;12.79;100.00;99466.26;1803339;78;20161;-73
2021/05/12 01:38:53;;;;;;;;;;;;;;;12.80;100.00;99457.09;1800069;78;20182;-72
2021/05/12 01:41:22;;;;;;;;;;;;;;;12.81;100.00;99449.26;1806055;79;20276;-75
2021/05/12 01:43:49;;;;;;;;;;;;;;;12.79;100.00;99442.81;1801417;78;20201;-71
2021/05/12 01:46:15;;;;;;;;;;;;;;;12.75;100.00;99443.63;1808096;79;21242;-74
2021/05/12 01:48:42;;;;;;;;;;;;;;;12.69;100.00;99457.64;1803141;78;20160;-72
2021/05/12 01:51:08;;;;;;;;;;;;;;;12.60;100.00;99449.83;1799190;78;20125;-74
2021/05/12 01:53:34;;;;;;;;;;;;;;;12.53;100.00;99452.78;1797891;78;20161;-72
2021/05/12 01:56:00;;;;;;;;;;;;;;;12.47;100.00;99456.56;1802923;78;20532;-73
2021/05/12 01:58:27;;;;;;;;;;;;;;;12.40;100.00;99459.51;1806130;78;21156;-71
2021/05/12 02:00:54;;;;;;;;;;;;;;;12.29;100.00;99439.03;1804029;78;20137;-72
2021/05/12 02:03:21;;;;;;;;;;;;;;;12.19;100.00;99449.78;1806481;78;20546;-71
2021/05/12 02:05:48;;;;;;;;;;;;;;;12.07;100.00;99458.09;1810243;79;20177;-71
2021/05/12 02:08:22;;;;;;;;;;;;;;;12.01;100.00;99456.48;1801663;78;20176;-73
2021/05/12 02:10:51;;;;;;;;;;;;;;;11.93;100.00;99428.73;1804899;78;21071;-71
2021/05/12 02:13:17;;;;;;;;;;;;;;;11.89;100.00;99442.47;1804110;78;20141;-73
2021/05/12 02:15:44;;;;;;;;;;;;;;;11.76;100.00;99447.23;1804280;78;20550;-72
2021/05/12 02:18:10;;;;;;;;;;;;;;;11.72;100.00;99452.06;1805972;78;20165;-72
2021/05/12 02:20:37;;;;;;;;;;;;;;;11.59;100.00;99455.51;1805932;79;20161;-72
2021/05/12 02:23:07;;;;;;;;;;;;;;;11.48;100.00;99468.61;1805874;79;20988;-73
2021/05/12 02:25:33;;;;;;;;;;;;;;;11.40;100.00;99442.25;1802236;78;20176;-71
2021/05/12 02:28:00;;;;;;;;;;;;;;;11.41;100.00;99459.98;1805785;78;20228;-72
2021/05/12 02:30:26;;;;;;;;;;;;;;;11.37;100.00;99463.73;1805967;79;20143;-73
2021/05/12 02:32:55;;;;;;;;;;;;;;;11.29;100.00;99472.81;1804840;78;20177;-74
2021/05/12 02:35:21;;;;;;;;;;;;;;;11.24;100.00;99476.81;1808050;78;21165;-72
2021/05/12 02:37:47;;;;;;;;;;;;;;;11.23;99.66;99481.39;1803247;78;20177;-71
2021/05/12 02:40:15;;;;;;;;;;;;;;;11.22;99.14;99482.98;1804696;78;20555;-72
2021/05/12 02:42:41;;;;;;;;;;;;;;;11.15;99.03;99491.28;1800437;78;20149;-73
2021/05/12 02:45:08;;;;;;;;;;;;;;;11.08;99.64;99499.56;1802885;78;20212;-72
2021/05/12 02:47:35;;;;;;;;;;;;;;;11.03;99.69;99501.41;1801895;77;21083;-70
2021/05/12 02:50:02;;;;;;;;;;;;;;;10.99;99.85;99497.61;1806352;78;20161;-72
2021/05/12 02:52:28;;;;;;;;;;;;;;;10.94;100.00;99499.19;1808577;78;20180;-73
2021/05/12 02:54:55;;;;;;;;;;;;;;;10.93;100.00;99502.14;1799161;78;20141;-73
2021/05/12 02:57:22;;;;;;;;;;;;;;;10.89;100.00;99501.83;1807865;78;20196;-71
2021/05/12 02:59:50;;;;;;;;;;;;;;;10.88;100.00;99516.88;1805320;78;21150;-71
2021/05/12 03:02:16;;;;;;;;;;;;;;;10.87;100.00;99513.90;1802834;78;20188;-72
2021/05/12 03:04:42;;;;;;;;;;;;;;;10.84;100.00;99513.08;1805156;78;20185;-72
2021/05/12 03:07:08;;;;;;;;;;;;;;;10.86;100.00;99511.75;1807639;79;20559;-70
2021/05/12 03:09:35;;;;;;;;;;;;;;;10.86;100.00;99516.31;1806746;78;20136;-71
2021/05/12 03:12:01;;;;;;;;;;;;;;;10.86;100.00;99514.97;1808262;78;21078;-72
2021/05/12 03:14:29;;;;;;;;;;;;;;;10.87;100.00;99517.39;1803121;78;20578;-72
2021/05/12 03:16:56;;;;;;;;;;;;;;;10.90;100.00;99511.52;1806065;78;20562;-72
2021/05/12 03:19:26;;;;;;;;;;;;;;;10.94;100.00;99526.58;1804487;78;20511;-74
2021/05/12 03:21:51;;;;;;;;;;;;;;;10.93;100.00;99520.94;1807104;79;20165;-74
2021/05/12 03:24:17;;;;;;;;;;;;;;;10.92;100.00;99520.11;1806174;79;21070;-71
2021/05/12 03:26:43;;;;;;;;;;;;;;;10.90;100.00;99518.23;1805972;79;20586;-73
2021/05/12 03:29:10;;;;;;;;;;;;;;;10.89;99.70;99523.31;1803293;78;20205;-72
2021/05/12 03:31:37;;;;;;;;;;;;;;;10.87;99.22;99525.98;1806596;78;20168;-74
2021/05/12 03:34:03;;;;;;;;;;;;;;;10.87;98.69;99520.61;1808636;78;20220;-72
2021/05/12 03:36:29;;;;;;;;;;;;;;;10.85;97.70;99514.17;1796875;78;21843;-74
2021/05/12 03:38:56;;;;;;;;;;;;;;;10.82;96.25;99520.03;1803262;78;20555;-73
2021/05/12 03:41:23;;;;;;;;;;;;;;;10.77;96.42;99528.59;1806097;78;20146;-73
2021/05/12 03:43:49;;;;;;;;;;;;;;;10.82;95.25;99531.31;1803411;78;20177;-72
2021/05/12 03:46:16;;;;;;;;;;;;;;;10.88;94.27;99537.02;1803949;78;20122;-71
2021/05/12 03:48:42;;;;;;;;;;;;;;;10.82;89.81;99535.34;1773123;78;21070;-73
2021/05/12 03:51:08;;;;;;;;;;;;;;;10.76;89.07;99538.52;1805704;78;20121;-72
2021/05/12 03:53:34;;;;;;;;;;;;;;;10.80;89.36;99542.30;1812651;79;20133;-72
2021/05/12 03:56:00;;;;;;;;;;;;;;;10.80;88.38;99546.32;1807946;78;20165;-72
2021/05/12 03:58:27;;;;;;;;;;;;;;;10.83;87.72;99552.55;1806086;79;20165;-71
2021/05/12 04:00:53;;;;;;;;;;;;;;;10.81;87.40;99553.33;1802854;78;21117;-73
2021/05/12 04:03:19;;;;;;;;;;;;;;;10.90;87.99;99564.40;1800056;78;20542;-73
2021/05/12 04:05:45;;;;;;;;;;;;;;;10.94;86.50;99554.77;1811387;79;20586;-72
2021/05/12 04:08:12;;;;;;;;;;;;;;;10.96;86.92;99547.27;1806178;79;20168;-74
2021/05/12 04:10:38;;;;;;;;;;;;;;;11.10;86.77;99561.90;1801808;78;20157;-73
2021/05/12 04:13:04;;;;;;;;;;;;;;;11.07;84.36;99552.19;1811394;79;21141;-73
2021/05/12 04:15:31;;;;;;;;;;;;;;;11.02;84.94;99557.52;1803829;78;20121;-72
2021/05/12 04:17:57;;;;;;;;;;;;;;;10.94;83.59;99558.27;1810574;78;20172;-73
2021/05/12 04:20:23;;;;;;;;;;;;;;;10.86;83.39;99547.20;1806390;78;20126;-73
2021/05/12 04:22:49;;;;;;;;;;;;;;;10.86;83.53;99569.48;1801341;78;20220;-72
2021/05/12 04:25:19;;;;;;;;;;;;;;;10.84;83.87;99566.23;1813070;79;21839;-70
2021/05/12 04:27:48;;;;;;;;;;;;;;;10.88;84.24;99555.81;1806217;78;20145;-72
2021/05/12 04:30:17;;;;;;;;;;;;;;;10.78;84.18;99547.13;1809656;78;20157;-72
2021/05/12 04:32:44;;;;;;;;;;;;;;;10.94;84.25;99562.29;1805906;79;20575;-72
2021/05/12 04:35:12;;;;;;;;;;;;;;;11.00;83.83;99555.11;1803819;78;20158;-73
2021/05/12 04:37:39;;;;;;;;;;;;;;;11.14;84.62;99568.36;1804790;78;21088;-74
2021/05/12 04:40:07;;;;;;;;;;;;;;;11.16;82.59;99563.55;1805612;78;20164;-74
2021/05/12 04:42:34;;;;;;;;;;;;;;;11.09;81.86;99552.20;1806045;78;20125;-74
2021/05/12 04:45:01;;;;;;;;;;;;;;;11.21;83.10;99552.03;1810592;78;20212;-72
2021/05/12 04:47:27;;;;;;;;;;;;;;;11.42;81.83;99550.30;1802771;78;20192;-73
2021/05/12 04:49:53;;;;;;;;;;;;;;;11.48;80.04;99549.25;1806854;78;21802;-71
2021/05/12 04:52:19;;;;;;;;;;;;;;;11.53;79.14;99543.91;1805761;78;20578;-73
2021/05/12 04:54:45;;;;;;;;;;;;;;;11.61;78.14;99542.59;1798959;78;20152;-72
2021/05/12 04:57:17;;;;;;;;;;;;;;;11.66;77.06;99538.62;1804971;79;20161;-74
2021/05/12 04:59:44;;;;;;;;;;;;;;;11.67;77.43;99548.28;1805333;79;20161;-72
2021/05/12 05:02:12;;;;;;;;;;;;;;;11.71;76.67;99551.25;1803545;78;21073;-74
2021/05/12 05:04:43;;;;;;;;;;;;;;;11.71;77.17;99555.28;1790037;78;20156;-71
2021/05/12 05:07:11;;;;;;;;;;;;;;;11.91;76.49;99543.87;1766834;80;20144;-72
2021/05/12 05:09:37;;;;;;;;;;;;;;;11.97;75.00;99548.98;1768532;80;20143;-72
2021/05/12 05:12:04;;;;;;;;;;;;;;;12.05;73.91;99549.02;1768304;80;20199;-72
2021/05/12 05:14:30;;;;;;;;;;;;;;;12.09;73.18;99552.80;1768329;79;21153;-70
2021/05/12 05:16:57;;;;;;;;;;;;;;;12.20;73.94;99550.44;1768173;80;20184;-74
2021/05/12 05:19:23;;;;;;;;;;;;;;;12.24;73.01;99550.70;1767995;80;20160;-72
2021/05/12 05:21:50;;;;;;;;;;;;;;;12.13;72.65;99539.11;1744038;80;20258;-73
2021/05/12 05:24:16;;;;;;;;;;;;;;;12.19;73.72;99548.80;1770595;80;20156;-72
2021/05/12 05:26:42;;;;;;;;;;;;;;;12.22;71.40;99551.50;1768150;80;21141;-71
2021/05/12 05:29:08;;;;;;;;;;;;;;;12.27;71.44;99542.63;1767952;80;20163;-72
2021/05/12 05:31:34;;;;;;;;;;;;;;;12.25;71.23;99540.73;1768822;80;20530;-72
2021/05/12 05:34:19;;;;;;;;;;;;;;;12.32;72.28;99539.44;1770595;79;20203;-73
2021/05/12 05:37:04;;;;;;;;;;;;;;;12.39;71.86;99548.59;1762935;78;20255;-74
2021/05/12 05:39:51;;;;;;;;;;;;;;;12.51;72.64;99547.80;1783308;79;21197;-73
2021/05/12 05:42:36;;;;;;;;;;;;;;;12.64;68.31;99540.58;1772975;80;20189;-73
2021/05/12 05:45:24;;;;;;;;;;;;;;;12.71;70.00;99550.26;1773391;81;20157;-73
2021/05/12 05:48:09;;;;;;;;;;;;;;;12.85;69.02;99549.46;1773212;79;20166;-72
2021/05/12 05:50:56;;;;;;;;;;;;;;;13.08;67.92;99554.03;1776465;79;20149;-74
2021/05/12 05:53:40;;;;;;;;;;;;;;;13.19;65.74;99551.62;1773103;79;21097;-72
2021/05/12 05:56:25;;;;;;;;;;;;;;;12.90;66.48;99548.66;1774179;79;20172;-72
2021/05/12 05:59:09;;;;;;;;;;;;;;;13.06;67.16;99546.24;1773140;80;20205;-71
2021/05/12 06:02:07;;;;;;;;;;;;;;;13.10;66.52;99549.19;1777972;79;20229;-74
2021/05/12 06:04:52;;;;;;;;;;;;;;;13.21;65.87;99547.31;1777259;79;20142;-72
2021/05/12 06:07:39;;;;;;;;;;;;;;;13.48;63.61;99547.84;1778451;79;21099;-75
2021/05/12 06:10:24;;;;;;;;;;;;;;;13.47;63.11;99541.36;1764060;80;20156;-71
2021/05/12 06:13:09;;;;;;;;;;;;;;;13.75;62.79;99551.28;1773977;79;20197;-73
2021/05/12 06:15:54;;;;;;;;;;;;;;;13.88;61.34;99553.39;1776253;79;20194;-71
2021/05/12 06:18:40;;;;;;;;;;;;;;;14.11;60.30;99545.19;1774204;79;20134;-73
2021/05/12 06:21:25;;;;;;;;;;;;;;;13.99;61.36;99542.00;1775051;79;21175;-73
2021/05/12 06:24:11;;;;;;;;;;;;;;;13.86;62.24;99550.95;1779123;79;20253;-72
2021/05/12 06:26:57;;;;;;;;;;;;;;;13.86;61.41;99543.41;1778182;79;20507;-72
2021/05/12 06:29:42;;;;;;;;;;;;;;;14.01;60.84;99541.98;1779321;79;20181;-72
2021/05/12 06:32:27;;;;;;;;;;;;;;;14.12;61.53;99544.92;1776588;79;20547;-73
2021/05/12 06:35:12;;;;;;;;;;;;;;;14.30;60.45;99526.47;1775878;79;21209;-71
2021/05/12 06:37:56;;;;;;;;;;;;;;;14.47;59.87;99540.95;1777106;79;20125;-72
2021/05/12 06:40:23;;;;;;;;;;;;;;;14.37;58.66;99538.57;1774562;79;20208;-72
2021/05/12 06:42:50;;;;;;;;;;;;;;;14.45;58.58;99542.58;1774767;79;20233;-71
2021/05/12 06:45:16;;;;;;;;;;;;;;;14.67;58.96;99538.14;1776853;79;20157;-72
2021/05/12 06:47:42;;;;;;;;;;;;;;;14.79;56.53;99535.09;1774940;79;21085;-71
2021/05/12 06:50:09;;;;;;;;;;;;;;;14.92;57.45;99544.44;1773590;79;20221;-71
2021/05/12 06:52:36;;;;;;;;;;;;;;;14.89;57.98;99536.91;1776388;79;20162;-70
2021/05/12 06:55:03;;;;;;;;;;;;;;;14.99;57.23;99540.34;1779457;79;20165;-72
2021/05/12 06:57:29;;;;;;;;;;;;;;;15.29;56.04;99521.44;1776374;79;20165;-73
2021/05/12 06:59:55;;;;;;;;;;;;;;;15.14;56.42;99533.17;1778207;79;21081;-71
2021/05/12 07:02:22;;;;;;;;;;;;;;;15.18;56.10;99522.06;1774726;79;20543;-72
2021/05/12 07:04:48;;;;;;;;;;;;;;;15.33;56.38;99537.33;1774965;79;20217;-70
2021/05/12 07:07:14;;;;;;;;;;;;;;;15.31;56.06;99533.58;1775617;79;20185;-71
2021/05/12 07:09:40;;;;;;;;;;;;;;;15.32;55.39;99531.13;1776166;79;20209;-70
2021/05/12 07:12:07;;;;;;;;;;;;;;;15.57;54.39;99530.05;1775567;79;21007;-72
2021/05/12 07:14:33;;;;;;;;;;;;;;;15.45;55.07;99512.05;1773557;80;20351;-72
2021/05/12 07:17:00;;;;;;;;;;;;;;;15.48;55.84;99539.07;1774696;79;20209;-72
2021/05/12 07:19:26;;;;;;;;;;;;;;;15.49;53.79;99529.33;1778186;79;20141;-71
2021/05/12 07:21:53;;;;;;;;;;;;;;;15.47;53.41;99523.95;1776480;80;20189;-74
2021/05/12 07:24:19;;;;;;;;;;;;;;;15.49;53.54;99534.74;1774068;79;21080;-73
2021/05/12 07:26:45;;;;;;;;;;;;;;;15.41;52.38;99514.54;1774291;80;20253;-73
2021/05/12 07:29:13;;;;;;;;;;;;;;;14.76;55.48;99519.45;1774865;79;20161;-71
2021/05/12 07:31:39;;;;;;;;;;;;;;;14.49;57.36;99523.94;1775643;79;20297;-71
2021/05/12 07:34:09;;;;;;;;;;;;;;;14.96;58.25;99519.83;1779366;79;20165;-72
2021/05/12 07:36:34;;;;;;;;;;;;;;;14.94;57.04;99519.30;1772937;79;21026;-71
2021/05/12 07:39:00;;;;;;;;;;;;;;;14.80;58.11;99515.10;1768293;78;20545;-70
2021/05/12 07:41:26;;;;;;;;;;;;;;;15.14;56.89;99511.02;1726765;81;20279;-71
2021/05/12 07:43:52;;;;;;;;;;;;;;;15.35;54.77;99520.28;1747921;80;20216;-72
2021/05/12 07:46:19;;;;;;;;;;;;;;;15.42;53.72;99503.97;1751771;80;20177;-71
2021/05/12 07:48:45;;;;;;;;;;;;;;;15.56;54.46;99498.69;1752279;80;21085;-73
2021/05/12 07:51:12;;;;;;;;;;;;;;;15.84;54.52;99510.55;1768439;80;20704;-71
2021/05/12 07:53:38;;;;;;;;;;;;;;;16.02;53.99;99500.88;1757941;78;20614;-72
2021/05/12 07:56:04;;;;;;;;;;;;;;;15.91;53.88;99511.56;1764646;81;20243;-70
2021/05/12 07:58:31;;;;;;;;;;;;;;;16.11;52.25;99507.78;1747018;80;20155;-68
2021/05/12 08:01:03;;;;;;;;;;;;;;;15.98;52.60;99505.25;1767010;80;21136;-70
2021/05/12 08:03:25;;;;;;;;;;;;;;;16.19;52.25;99506.31;1748330;80;20219;-74
2021/05/12 08:05:51;;;;;;;;;;;;;;;16.14;50.56;99509.89;1763767;80;20155;-71
2021/05/12 08:08:25;;;;;;;;;;;;;;;15.96;51.60;99487.69;1768581;81;20164;-71
2021/05/12 08:10:53;;;;;;;;;;;;;;;15.92;51.66;99494.21;1742280;80;20193;-70
2021/05/12 08:13:19;;;;;;;;;;;;;;;15.77;51.00;99480.88;1742675;80;21007;-72
2021/05/12 08:15:45;;;;;;;;;;;;;;;15.91;50.57;99479.08;1755214;80;20183;-71
2021/05/12 08:18:11;;;;;;;;;;;;;;;16.18;50.43;99508.78;1762142;80;20160;-73
2021/05/12 08:20:38;;;;;;;;;;;;;;;16.38;49.71;99498.20;1755550;81;20242;-72
2021/05/12 08:23:04;;;;;;;;;;;;;;;16.42;51.29;99498.68;1763682;80;20219;-72
2021/05/12 08:25:30;;;;;;;;;;;;;;;16.08;50.46;99501.59;1762511;80;21843;-71
2021/05/12 08:27:58;;;;;;;;;;;;;;;15.62;52.88;99496.17;1760110;80;20179;-68
2021/05/12 08:30:28;;;;;;;;;;;;;;;15.21;54.24;99487.16;1768539;80;20176;-71
2021/05/12 08:32:56;;;;;;;;;;;;;;;14.99;55.22;99487.64;1765141;80;20504;-70
2021/05/12 08:35:22;;;;;;;;;;;;;;;14.90;55.51;99473.68;1771910;80;20159;-72
2021/05/12 08:37:52;;;;;;;;;;;;;;;14.83;55.55;99486.70;1770170;80;21202;-71
2021/05/12 08:40:20;;;;;;;;;;;;;;;15.03;54.34;99478.41;1784105;79;20554;-72
2021/05/12 08:42:46;;;;;;;;;;;;;;;15.13;53.42;99493.72;1784861;78;20579;-72
2021/05/12 08:45:12;;;;;;;;;;;;;;;15.31;52.24;99480.02;1799868;78;20556;-73
2021/05/12 08:47:39;;;;;;;;;;;;;;;15.46;52.25;99485.28;1797852;78;20161;-73
2021/05/12 08:50:07;;;;;;;;;;;;;;;15.26;53.86;99488.19;1803645;78;21116;-71
2021/05/12 08:52:33;;;;;;;;;;;;;;;15.68;52.49;99480.70;1791450;78;20161;-72
2021/05/12 08:54:59;;;;;;;;;;;;;;;16.28;49.75;99479.64;1795735;78;20184;-73
2021/05/12 08:57:25;;;;;;;;;;;;;;;16.42;49.97;99482.98;1796281;78;20401;-73
2021/05/12 08:59:52;;;;;;;;;;;;;;;16.40;50.07;99468.37;1797363;78;20157;-72
2021/05/12 09:02:18;;;;;;;;;;;;;;;16.63;50.29;99476.13;1802011;79;21066;-72
2021/05/12 09:04:44;;;;;;;;;;;;;;;16.99;49.65;99477.48;1774134;79;20145;-72
2021/05/12 09:07:10;;;;;;;;;;;;;;;16.93;47.99;99475.42;1807468;78;20563;-72
2021/05/12 09:09:37;;;;;;;;;;;;;;;16.86;48.44;99464.16;1790024;78;20165;-73
2021/05/12 09:12:03;;;;;;;;;;;;;;;17.05;45.26;99468.97;1796882;78;20169;-73
2021/05/12 09:14:36;;;;;;;;;;;;;;;17.25;46.46;99468.34;1794932;79;21147;-72
2021/05/12 09:17:03;;;;;;;;;;;;;;;17.39;44.46;99456.92;1799966;78;20217;-72
2021/05/12 09:19:30;;;;;;;;;;;;;;;17.06;47.34;99444.80;1794999;78;20165;-71
2021/05/12 09:21:58;;;;;;;;;;;;;;;17.11;47.85;99458.27;1800315;79;20166;-71
2021/05/12 09:24:36;;;;;;;;;;;;;;;17.20;47.23;99460.27;1797247;78;20535;-71
2021/05/12 09:27:15;;;;;;;;;;;;;;;17.40;45.45;99435.48;1797342;78;21075;-72
2021/05/12 09:29:45;;;;;;;;;;;;;;;17.04;45.20;99452.43;1800007;78;20153;-72
2021/05/12 09:32:13;;;;;;;;;;;;;;;16.58;47.18;99457.24;1799048;78;20169;-72
2021/05/12 09:35:02;;;;;;;;;;;;;;;16.28;47.81;99449.84;1806673;78;20185;-73
2021/05/12 09:37:36;;;;;;;;;;;;;;;15.92;49.44;99440.08;1800052;78;20157;-72
2021/05/12 09:40:11;;;;;;;;;;;;;;;15.90;50.67;99451.77;1796793;78;21779;-72
2021/05/12 09:42:40;;;;;;;;;;;;;;;15.91;49.42;99445.80;1800081;78;20547;-73
2021/05/12 09:45:16;;;;;;;;;;;;;;;15.88;49.11;99455.31;1800065;79;20142;-72
2021/05/12 09:47:44;;;;;;;;;;;;;;;15.63;49.51;99453.16;1801653;78;20566;-73
2021/05/12 09:50:25;;;;;;;;;;;;;;;15.76;49.52;99448.16;1797133;78;20209;-73
2021/05/12 09:52:59;;;;;;;;;;;;;;;15.76;50.04;99438.14;1800047;79;21798;-72
2021/05/12 09:55:34;;;;;;;;;;;;;;;16.32;48.98;99448.73;1769104;79;20180;-72
2021/05/12 09:58:04;;;;;;;;;;;;;;;16.50;47.55;99447.89;1798639;78;20185;-69
2021/05/12 10:00:35;;;;;;;;;;;;;;;16.69;46.87;99456.55;1805756;79;20173;-73
2021/05/12 10:03:03;;;;;;;;;;;;;;;16.95;45.88;99458.84;1799471;78;20156;-74
2021/05/12 10:05:50;;;;;;;;;;;;;;;16.64;46.40;99461.49;1805308;79;21719;-72
2021/05/12 10:08:22;;;;;;;;;;;;;;;16.77;45.92;99457.21;1803916;78;20162;-74
2021/05/12 10:10:50;;;;;;;;;;;;;;;16.57;47.25;99465.69;1798536;78;20565;-72
2021/05/12 10:13:16;;;;;;;;;;;;;;;16.49;46.74;99476.09;1732073;79;20597;-70
2021/05/12 10:15:42;;;;;;;;;;;;;;;16.28;46.48;99463.39;1813834;79;20244;-72
2021/05/12 10:18:10;;;;;;;;;;;;;;;16.40;46.71;99465.66;1801620;78;21068;-71
2021/05/12 10:20:38;;;;;;;;;;;;;;;16.43;47.38;99468.33;1771660;79;20197;-72
2021/05/12 10:23:05;;;;;;;;;;;;;;;16.03;47.19;99452.38;1765696;78;20273;-73
2021/05/12 10:25:31;;;;;;;;;;;;;;;15.80;48.20;99454.06;1747938;78;20174;-75
2021/05/12 10:27:58;;;;;;;;;;;;;;;15.48;48.96;99457.38;1733611;80;20159;-73
2021/05/12 10:30:27;;;;;;;;;;;;;;;15.50;49.99;99461.95;1752910;78;21190;-73
2021/05/12 10:32:56;;;;;;;;;;;;;;;15.78;50.99;99460.86;1737381;78;20161;-74
2021/05/12 10:35:33;;;;;;;;;;;;;;;16.17;48.65;99458.41;1767752;78;20203;-73
2021/05/12 10:37:59;;;;;;;;;;;;;;;16.63;46.82;99458.52;1768118;81;20194;-74
2021/05/12 10:40:28;;;;;;;;;;;;;;;16.59;45.99;99422.29;1768068;80;20152;-74
2021/05/12 10:48:35;;;;;;;;;;;;;;;15.99;47.07;99462.17;1767920;81;20211;-73
2021/05/12 10:51:05;;;;;;;;;;;;;;;15.63;49.92;99469.39;1768002;81;20179;-73
2021/05/12 10:53:33;;;;;;;;;;;;;;;15.64;49.74;99458.81;1761879;78;20218;-72
2021/05/12 10:56:02;;;;;;;;;;;;;;;15.71;49.83;99462.56;1737165;78;21017;-75
2021/05/12 10:58:34;;;;;;;;;;;;;;;15.56;50.26;99458.11;1695730;82;20158;-74
2021/05/12 11:01:03;;;;;;;;;;;;;;;15.50;50.40;99457.90;1695317;81;20180;-74
2021/05/12 11:03:51;;;;;;;;;;;;;;;15.36;49.98;99457.80;1711784;81;20222;-73
2021/05/12 11:06:21;;;;;;;;;;;;;;;15.34;51.68;99464.59;1707411;81;20245;-72
2021/05/12 11:09:17;;;;;;;;;;;;;;;15.36;50.71;99459.16;1694886;81;21099;-73
2021/05/12 11:11:49;;;;;;;;;;;;;;;15.23;50.49;99458.47;1690372;81;20184;-72
2021/05/12 11:14:23;;;;;;;;;;;;;;;15.02;51.65;99456.54;1727100;80;20556;-73
2021/05/12 11:17:11;;;;;;;;;;;;;;;15.56;49.69;99463.52;1729395;80;20785;-72
2021/05/12 11:19:47;;;;;;;;;;;;;;;15.50;50.27;99446.28;1713030;82;20536;-72
2021/05/12 11:22:33;;;;;;;;;;;;;;;15.31;52.26;99458.39;1731215;82;21049;-74
2021/05/12 11:25:07;;;;;;;;;;;;;;;15.07;52.80;99438.12;1735396;82;20222;-71
2021/05/12 11:27:50;;;;;;;;;;;;;;;15.02;54.09;99449.78;1734967;82;20189;-73
2021/05/12 11:32:27;;;;;;;;;;;;;;;15.06;53.49;99452.70;1735530;82;20158;-72
2021/05/12 11:34:53;;;;;;;;;;;;;;;15.07;51.02;99447.03;1735290;82;21041;-71
2021/05/12 11:37:23;;;;;;;;;;;;;;;15.10;51.47;99446.45;1735438;82;20166;-71
2021/05/12 11:39:49;;;;;;;;;;;;;;;15.16;52.21;99441.78;1735249;82;20190;-72
2021/05/12 11:42:25;;;;;;;;;;;;;;;15.09;51.92;99449.42;1735376;82;20306;-72
2021/05/12 11:45:04;;;;;;;;;;;;;;;14.92;53.08;99437.69;1735616;82;20644;-72
2021/05/12 11:47:31;;;;;;;;;;;;;;;14.76;53.69;99431.09;1735357;82;21064;-70
2021/05/12 11:49:57;;;;;;;;;;;;;;;14.62;53.38;99430.13;1734104;82;20548;-71
2021/05/12 11:52:32;;;;;;;;;;;;;;;14.76;54.16;99431.09;1735708;82;20573;-71
2021/05/12 11:55:08;;;;;;;;;;;;;;;15.12;53.14;99428.59;1735667;82;20219;-71
2021/05/12 11:57:38;;;;;;;;;;;;;;;15.44;51.07;99422.00;1735851;82;20177;-71
2021/05/12 12:00:08;;;;;;;;;;;;;;;15.54;49.49;99415.66;1734238;82;21087;-71
2021/05/12 12:02:38;;;;;;;;;;;;;;;16.04;47.67;99409.88;1732622;82;20532;-70
2021/05/12 12:05:07;;;;;;;;;;;;;;;16.45;47.67;99413.31;1734995;82;20154;-71
2021/05/12 12:07:34;;;;;;;;;;;;;;;16.72;45.14;99394.41;1734013;82;20193;-72
2021/05/12 12:10:01;;;;;;;;;;;;;;;16.54;45.43;99406.68;1714136;82;20634;-70
2021/05/12 12:12:28;;;;;;;;;;;;;;;16.45;45.88;99392.44;1735244;82;21110;-72
2021/05/12 12:15:09;;;;;;;;;;;;;;;16.17;47.51;99394.78;1735468;82;20162;-72
2021/05/12 12:17:35;;;;;;;;;;;;;;;16.04;47.78;99409.88;1735417;82;20162;-72
2021/05/12 12:20:06;;;;;;;;;;;;;;;16.21;48.11;99399.87;1735398;82;20525;-72
2021/05/12 12:22:32;;;;;;;;;;;;;;;16.08;48.04;99395.45;1735269;82;20182;-73
2021/05/12 12:25:17;;;;;;;;;;;;;;;15.85;49.00;99393.66;1756692;80;21199;-72
2021/05/12 12:27:44;;;;;;;;;;;;;;;15.91;49.45;99397.88;1728952;81;20174;-71
2021/05/12 12:30:15;;;;;;;;;;;;;;;15.85;48.83;99390.95;1729753;82;20592;-72
2021/05/12 12:32:42;;;;;;;;;;;;;;;16.18;45.39;99389.64;1734633;82;20257;-73
2021/05/12 12:35:09;;;;;;;;;;;;;;;16.25;45.61;99377.88;1734490;82;20190;-71
2021/05/12 12:37:37;;;;;;;;;;;;;;;16.16;46.85;99376.38;1734733;82;21162;-71
2021/05/12 12:40:09;;;;;;;;;;;;;;;16.01;46.46;99374.72;1734595;82;20560;-71
2021/05/12 12:42:45;;;;;;;;;;;;;;;15.85;47.69;99379.56;1734345;82;20189;-72
2021/05/12 12:45:25;;;;;;;;;;;;;;;16.15;47.59;99376.70;1734777;82;20206;-73
2021/05/12 12:47:55;;;;;;;;;;;;;;;16.18;47.56;99372.04;1735149;82;20162;-72
2021/05/12 12:50:22;;;;;;;;;;;;;;;16.20;45.75;99377.41;1735312;82;21181;-74
2021/05/12 12:52:49;;;;;;;;;;;;;;;16.18;45.75;99379.61;1734838;82;20217;-72
2021/05/12 12:55:20;;;;;;;;;;;;;;;16.04;45.69;99376.83;1723350;82;20180;-73
2021/05/12 12:57:48;;;;;;;;;;;;;;;15.95;47.00;99366.44;1726257;81;20538;-73
2021/05/12 13:00:29;;;;;;;;;;;;;;;16.15;44.86;99353.13;1720550;83;20267;-71
2021/05/12 13:03:02;;;;;;;;;;;;;;;16.63;45.35;99361.52;1725475;83;21100;-70